createdAt,value
2022-08-29T00:00:09.793Z,17.92
2022-08-29T00:02:49.472Z,14.52
2022-08-29T00:05:18.829Z,10.00
2022-08-29T00:07:45.663Z,9.75
2022-08-29T00:10:12.637Z,17.65
2022-08-29T00:12:39.431Z,10.15
2022-08-29T00:15:08.466Z,14.68
2022-08-29T00:17:34.903Z,14.18
2022-08-29T00:20:01.776Z,14.65
2022-08-29T00:22:28.266Z,14.55
2022-08-29T00:24:54.698Z,13.45
2022-08-29T00:27:21.215Z,16.73
2022-08-29T00:29:47.667Z,14.93
2022-08-29T00:32:14.097Z,14.32
2022-08-29T00:34:40.551Z,13.43
2022-08-29T00:37:06.991Z,13.35
2022-08-29T00:39:33.900Z,18.17
2022-08-29T00:42:01.361Z,14.07
2022-08-29T00:44:28.614Z,12.10
2022-08-29T00:46:58.458Z,21.50
2022-08-29T00:49:32.160Z,13.73
2022-08-29T00:52:03.967Z,16.40
2022-08-29T00:54:31.471Z,15.23
2022-08-29T00:56:58.992Z,14.98
2022-08-29T00:59:34.828Z,15.60
2022-08-29T01:02:03.314Z,13.38
2022-08-29T01:04:30.073Z,15.27
2022-08-29T01:06:56.898Z,14.20
2022-08-29T01:09:24.327Z,10.98
2022-08-29T01:12:09.628Z,13.70
2022-08-29T01:14:38.619Z,16.90
2022-08-29T01:17:29.532Z,16.00
2022-08-29T01:20:09.966Z,19.35
2022-08-29T01:22:48.707Z,21.17
2022-08-29T01:25:19.749Z,16.92
2022-08-29T01:27:52.546Z,11.73
2022-08-29T01:30:19.849Z,17.30
2022-08-29T01:32:46.743Z,9.48
2022-08-29T01:35:13.174Z,15.15
2022-08-29T01:37:42.236Z,11.25
2022-08-29T01:40:09.742Z,11.50
2022-08-29T01:42:37.414Z,13.05
2022-08-29T01:45:05.663Z,10.75
2022-08-29T01:47:38.669Z,10.45
2022-08-29T01:50:09.790Z,31.33
2022-08-29T01:52:36.225Z,16.05
2022-08-29T01:55:03.041Z,18.48
2022-08-29T01:57:29.514Z,15.07
2022-08-29T01:59:56.489Z,15.85
2022-08-29T02:02:27.197Z,18.90
2022-08-29T02:04:53.686Z,16.13
2022-08-29T02:07:24.381Z,22.15
2022-08-29T02:09:51.603Z,13.20
2022-08-29T02:12:18.428Z,14.52
2022-08-29T02:14:44.976Z,12.02
2022-08-29T02:17:11.928Z,11.63
2022-08-29T02:19:39.429Z,8.85
2022-08-29T02:22:07.281Z,10.32
2022-08-29T02:24:33.752Z,14.02
2022-08-29T02:27:00.355Z,10.65
2022-08-29T02:29:30.802Z,12.43
2022-08-29T02:32:05.217Z,14.10
2022-08-29T02:34:33.319Z,12.23
2022-08-29T02:36:59.776Z,11.52
2022-08-29T02:39:26.588Z,13.90
2022-08-29T02:41:53.096Z,14.73
2022-08-29T02:44:20.449Z,21.02
2022-08-29T02:46:47.291Z,15.30
2022-08-29T02:49:13.744Z,15.68
2022-08-29T02:51:40.805Z,16.38
2022-08-29T02:54:07.251Z,14.95
2022-08-29T02:56:33.684Z,16.90
2022-08-29T02:59:00.135Z,15.75
2022-08-29T03:01:27.350Z,18.75
2022-08-29T03:03:53.993Z,13.48
2022-08-29T03:06:21.375Z,16.00
2022-08-29T03:08:47.800Z,14.10
2022-08-29T03:11:14.444Z,17.67
2022-08-29T03:13:43.932Z,14.35
2022-08-29T03:16:10.587Z,18.25
2022-08-29T03:18:37.059Z,12.60
2022-08-29T03:21:03.511Z,13.30
2022-08-29T03:23:29.934Z,13.13
2022-08-29T03:25:56.366Z,23.13
2022-08-29T03:28:22.780Z,14.57
2022-08-29T03:30:49.389Z,15.38
2022-08-29T03:33:16.918Z,15.50
2022-08-29T03:35:43.387Z,12.73
2022-08-29T03:38:09.802Z,16.60
2022-08-29T03:40:36.520Z,18.55
2022-08-29T03:43:03.395Z,10.25
2022-08-29T03:45:30.644Z,15.38
2022-08-29T03:47:57.367Z,15.88
2022-08-29T03:50:24.328Z,17.25
2022-08-29T03:52:51.453Z,18.38
2022-08-29T03:55:20.061Z,19.50
2022-08-29T03:57:46.528Z,17.85
2022-08-29T04:00:16.411Z,20.20
2022-08-29T04:02:45.682Z,17.00
2022-08-29T04:05:13.470Z,15.50
2022-08-29T04:07:49.075Z,16.38
2022-08-29T04:10:23.388Z,13.77
2022-08-29T04:12:54.429Z,14.35
2022-08-29T04:15:21.658Z,18.15
2022-08-29T04:17:53.142Z,19.23
2022-08-29T04:20:24.750Z,17.33
2022-08-29T04:22:54.140Z,22.33
2022-08-29T04:25:21.541Z,16.30
2022-08-29T04:27:49.418Z,11.85
2022-08-29T04:30:18.741Z,18.02
2022-08-29T04:32:45.589Z,13.15
2022-08-29T04:35:13.466Z,13.30
2022-08-29T04:37:41.044Z,16.58
2022-08-29T04:40:15.506Z,16.80
2022-08-29T04:42:42.848Z,17.38
2022-08-29T04:45:14.938Z,19.50
2022-08-29T04:47:42.746Z,14.25
2022-08-29T04:50:12.086Z,13.63
2022-08-29T04:52:39.091Z,18.88
2022-08-29T04:55:07.362Z,21.40
2022-08-29T04:57:34.854Z,22.55
2022-08-29T05:00:01.368Z,15.75
2022-08-29T05:02:28.295Z,16.48
2022-08-29T05:04:56.575Z,18.67
2022-08-29T05:07:26.246Z,19.77
2022-08-29T05:09:58.717Z,18.40
2022-08-29T05:12:25.972Z,16.23
2022-08-29T05:14:53.757Z,19.23
2022-08-29T05:17:21.037Z,15.18
2022-08-29T05:19:47.939Z,15.07
2022-08-29T05:22:14.908Z,21.02
2022-08-29T05:24:41.390Z,16.88
2022-08-29T05:27:13.294Z,16.95
2022-08-29T05:29:41.499Z,22.98
2022-08-29T05:32:10.183Z,19.98
2022-08-29T05:34:38.463Z,22.67
2022-08-29T05:37:08.239Z,22.33
2022-08-29T05:39:36.410Z,15.77
2022-08-29T05:42:03.779Z,20.30
2022-08-29T05:44:35.244Z,14.40
2022-08-29T05:47:07.044Z,16.05
2022-08-29T05:49:36.544Z,20.25
2022-08-29T05:52:03.738Z,17.52
2022-08-29T05:54:34.800Z,16.58
2022-08-29T05:57:01.356Z,22.73
2022-08-29T05:59:27.808Z,16.50
2022-08-29T06:01:54.246Z,21.02
2022-08-29T06:04:20.841Z,19.85
2022-08-29T06:06:47.402Z,20.73
2022-08-29T06:09:14.243Z,16.33
2022-08-29T06:11:40.668Z,18.08
2022-08-29T06:14:07.295Z,13.85
2022-08-29T06:16:33.795Z,18.10
2022-08-29T06:19:00.323Z,26.30
2022-08-29T06:21:26.773Z,19.70
2022-08-29T06:23:53.197Z,18.08
2022-08-29T06:26:19.960Z,22.40
2022-08-29T06:28:47.281Z,14.70
2022-08-29T06:31:22.304Z,21.25
2022-08-29T06:33:53.311Z,25.00
2022-08-29T06:38:47.046Z,25.23
2022-08-29T06:41:16.078Z,17.73
2022-08-29T06:43:43.440Z,23.75
2022-08-29T06:46:22.531Z,23.85
2022-08-29T06:48:49.832Z,27.48
2022-08-29T06:51:16.611Z,20.27
2022-08-29T06:53:43.318Z,22.10
2022-08-29T06:56:11.222Z,18.77
2022-08-29T06:58:38.137Z,18.65
2022-08-29T07:01:16.506Z,16.00
2022-08-29T07:03:43.070Z,22.90
2022-08-29T07:06:10.634Z,17.88
2022-08-29T07:08:42.228Z,18.33
2022-08-29T07:11:13.263Z,17.92
2022-08-29T07:13:40.397Z,20.30
2022-08-29T07:16:11.342Z,16.30
2022-08-29T07:21:08.494Z,18.50
2022-08-29T07:23:35.980Z,22.48
2022-08-29T07:26:22.366Z,19.33
2022-08-29T07:28:50.763Z,23.65
2022-08-29T07:31:18.039Z,19.92
2022-08-29T07:33:44.581Z,19.20
2022-08-29T07:36:11.287Z,22.42
2022-08-29T07:38:38.332Z,17.35
2022-08-29T07:41:10.784Z,16.30
2022-08-29T07:43:37.881Z,19.50
2022-08-29T07:46:13.363Z,19.75
2022-08-29T07:48:40.992Z,20.65
2022-08-29T07:51:15.778Z,16.27
2022-08-29T07:53:42.794Z,13.90
2022-08-29T07:56:12.684Z,20.88
2022-08-29T07:58:39.580Z,20.02
2022-08-29T08:01:06.513Z,17.83
2022-08-29T08:03:33.959Z,15.27
2022-08-29T08:06:03.842Z,18.05
2022-08-29T08:08:33.532Z,21.00
2022-08-29T08:10:59.996Z,19.00
2022-08-29T08:13:27.942Z,18.67
2022-08-29T08:15:55.449Z,22.75
2022-08-29T08:18:22.366Z,18.75
2022-08-29T08:20:48.850Z,21.08
2022-08-29T08:23:16.468Z,19.65
2022-08-29T08:25:43.305Z,19.00
2022-08-29T08:28:10.625Z,19.50
2022-08-29T08:30:37.479Z,19.35
2022-08-29T08:33:05.008Z,15.52
2022-08-29T08:35:35.286Z,17.75
2022-08-29T08:38:04.365Z,18.55
2022-08-29T08:40:32.116Z,21.40
2022-08-29T08:43:02.726Z,14.50
2022-08-29T08:45:41.954Z,20.05
2022-08-29T08:48:17.838Z,17.65
2022-08-29T08:51:06.160Z,16.92
2022-08-29T08:53:37.536Z,16.35
2022-08-29T08:56:32.814Z,15.38
2022-08-29T08:59:23.168Z,16.17
2022-08-29T09:02:17.894Z,20.77
2022-08-29T09:05:17.044Z,19.77
2022-08-29T09:07:57.402Z,19.60
2022-08-29T09:10:56.645Z,18.20
2022-08-29T09:16:24.778Z,16.27
2022-08-29T09:18:52.613Z,16.42
2022-08-29T09:21:40.742Z,19.13
2022-08-29T09:24:12.789Z,21.23
2022-08-29T09:26:39.253Z,19.15
2022-08-29T09:29:09.130Z,30.63
2022-08-29T09:31:36.010Z,15.38
2022-08-29T09:34:08.394Z,19.58
2022-08-29T09:36:49.156Z,19.48
2022-08-29T09:39:22.947Z,15.15
2022-08-29T09:42:11.628Z,13.95
2022-08-29T09:44:39.156Z,15.27
2022-08-29T09:47:14.743Z,14.40
2022-08-29T09:50:00.101Z,15.27
2022-08-29T09:52:26.742Z,18.33
2022-08-29T09:54:53.206Z,16.13
2022-08-29T09:57:26.113Z,16.23
2022-08-29T10:00:15.246Z,14.95
2022-08-29T10:02:58.778Z,22.10
2022-08-29T10:05:35.010Z,14.95
2022-08-29T10:08:04.058Z,16.73
2022-08-29T10:10:34.642Z,14.55
2022-08-29T10:13:04.272Z,14.02
2022-08-29T10:15:57.146Z,14.40
2022-08-29T10:18:42.944Z,19.35
2022-08-29T10:21:29.188Z,12.05
2022-08-29T10:24:14.615Z,14.20
2022-08-29T10:27:00.448Z,11.55
2022-08-29T10:29:38.965Z,15.63
2022-08-29T10:32:27.120Z,18.80
2022-08-29T10:35:03.350Z,14.02
2022-08-29T10:37:48.655Z,14.43
2022-08-29T10:40:25.255Z,16.17
2022-08-29T10:43:07.746Z,17.17
2022-08-29T10:45:58.737Z,17.27
2022-08-29T10:48:43.512Z,16.92
2022-08-29T10:51:31.378Z,20.20
2022-08-29T10:54:10.850Z,15.63
2022-08-29T10:56:44.198Z,11.27
2022-08-29T10:59:20.813Z,12.32
2022-08-29T11:02:00.388Z,17.90
2022-08-29T11:04:34.534Z,10.07
2022-08-29T11:07:04.084Z,12.82
2022-08-29T11:09:55.565Z,12.57
2022-08-29T11:12:45.138Z,21.85
2022-08-29T11:15:33.672Z,12.25
2022-08-29T11:18:25.846Z,13.27
2022-08-29T11:20:58.853Z,12.88
2022-08-29T11:23:40.905Z,18.40
2022-08-29T11:26:22.652Z,19.83
2022-08-29T11:29:24.665Z,16.85
2022-08-29T11:32:13.121Z,18.17
2022-08-29T11:35:07.445Z,13.07
2022-08-29T11:37:48.848Z,16.10
2022-08-29T11:43:26.435Z,17.42
2022-08-29T11:46:04.652Z,12.18
2022-08-29T11:48:45.241Z,12.90
2022-08-29T11:51:36.234Z,12.52
2022-08-29T11:54:25.532Z,31.52
2022-08-29T11:57:00.884Z,16.83
2022-08-29T11:59:49.331Z,16.73
2022-08-29T12:02:27.860Z,15.35
2022-08-29T12:05:01.760Z,12.73
2022-08-29T12:07:49.192Z,13.43
2022-08-29T12:10:23.518Z,12.05
2022-08-29T12:12:56.652Z,9.88
2022-08-29T12:15:32.363Z,13.32
2022-08-29T12:18:07.866Z,14.23
2022-08-29T12:20:41.074Z,15.15
2022-08-29T12:23:19.915Z,8.95
2022-08-29T12:26:09.426Z,12.48
2022-08-29T12:28:45.229Z,12.30
2022-08-29T12:31:20.414Z,13.25
2022-08-29T12:33:57.702Z,10.40
2022-08-29T12:36:27.131Z,12.82
2022-08-29T12:39:12.162Z,10.88
2022-08-29T12:42:09.886Z,8.30
2022-08-29T12:44:42.689Z,12.70
2022-08-29T12:47:21.560Z,13.15
2022-08-29T12:49:53.984Z,10.38
2022-08-29T12:52:27.246Z,11.32
2022-08-29T12:54:56.790Z,8.43
2022-08-29T12:57:33.423Z,10.00
2022-08-29T13:00:02.059Z,7.00
2022-08-29T13:02:33.181Z,12.23
2022-08-29T13:04:59.748Z,14.25
2022-08-29T13:07:28.296Z,9.50
2022-08-29T13:10:00.765Z,13.10
2022-08-29T13:12:35.709Z,12.57
2022-08-29T13:15:32.107Z,35.00
2022-08-29T13:17:59.766Z,10.90
2022-08-29T13:20:38.183Z,9.63
2022-08-29T13:23:27.844Z,7.32
2022-08-29T13:26:09.671Z,9.88
2022-08-29T13:28:43.850Z,8.85
2022-08-29T13:31:16.646Z,11.32
2022-08-29T13:33:45.917Z,11.60
2022-08-29T13:36:27.636Z,9.07
2022-08-29T13:39:17.024Z,33.50
2022-08-29T13:41:43.412Z,14.02
2022-08-29T13:44:18.758Z,16.25
2022-08-29T13:46:52.646Z,13.93
2022-08-29T13:49:24.581Z,7.63
2022-08-29T13:51:51.426Z,8.23
2022-08-29T13:54:18.058Z,10.48
2022-08-29T13:56:49.069Z,7.13
2022-08-29T13:59:19.025Z,10.60
2022-08-29T14:04:38.504Z,5.15
2022-08-29T14:07:07.225Z,5.13
2022-08-29T14:09:39.948Z,6.35
2022-08-29T14:12:06.850Z,5.18
2022-08-29T14:14:33.264Z,7.55
2022-08-29T14:16:59.894Z,12.05
2022-08-29T14:19:28.783Z,7.43
2022-08-29T14:21:55.643Z,4.43
2022-08-29T14:24:22.431Z,5.80
2022-08-29T14:27:01.929Z,7.32
2022-08-29T14:29:33.467Z,4.45
2022-08-29T14:32:03.136Z,4.07
2022-08-29T14:34:32.455Z,7.43
2022-08-29T14:37:00.191Z,5.13
2022-08-29T14:39:26.761Z,5.40
2022-08-29T14:41:54.296Z,6.07
2022-08-29T14:44:21.924Z,4.57
2022-08-29T14:46:49.432Z,5.05
2022-08-29T14:49:16.379Z,5.22
2022-08-29T14:51:44.204Z,4.32
2022-08-29T14:54:11.352Z,3.50
2022-08-29T14:56:49.256Z,4.95
2022-08-29T14:59:20.503Z,8.95
2022-08-29T15:01:52.986Z,10.43
2022-08-29T15:04:35.672Z,3.58
2022-08-29T15:07:05.494Z,8.55
2022-08-29T15:09:32.029Z,3.15
2022-08-29T15:11:58.482Z,4.60
2022-08-29T15:14:24.931Z,3.72
2022-08-29T15:16:51.500Z,5.00
2022-08-29T15:19:53.796Z,2.33
2022-08-29T15:22:04.695Z,3.85
2022-08-29T15:24:31.398Z,2.78
2022-08-29T15:26:58.350Z,2.85
2022-08-29T15:32:13.254Z,5.13
2022-08-29T15:34:41.012Z,2.90
2022-08-29T15:37:09.825Z,6.13
2022-08-29T15:39:36.567Z,3.95
2022-08-29T15:42:08.407Z,4.45
2022-08-29T15:44:34.907Z,4.25
2022-08-29T15:47:01.466Z,2.75
2022-08-29T15:49:28.256Z,4.55
2022-08-29T15:51:55.115Z,4.43
2022-08-29T15:54:23.304Z,2.33
2022-08-29T15:56:50.325Z,3.47
2022-08-29T15:59:18.503Z,2.83
2022-08-29T16:01:51.374Z,4.68
2022-08-29T16:04:20.071Z,4.50
2022-08-29T16:06:47.205Z,2.45
2022-08-29T16:09:15.581Z,2.97
2022-08-29T16:11:47.652Z,3.92
2022-08-29T16:17:01.927Z,2.25
2022-08-29T16:19:28.416Z,3.22
2022-08-29T16:21:59.756Z,2.75
2022-08-29T16:24:28.315Z,3.97
2022-08-29T16:26:55.410Z,4.45
2022-08-29T16:29:26.832Z,1.83
2022-08-29T16:31:57.932Z,3.25
2022-08-29T16:34:25.671Z,3.95
2022-08-29T16:36:58.642Z,2.22
2022-08-29T16:39:25.419Z,3.13
2022-08-29T16:41:52.352Z,2.88
2022-08-29T16:44:19.552Z,3.20
2022-08-29T16:46:46.548Z,2.33
2022-08-29T16:49:13.067Z,2.13
2022-08-29T16:51:39.496Z,2.00
2022-08-29T16:54:05.909Z,2.92
2022-08-29T16:56:32.873Z,2.40
2022-08-29T16:59:00.145Z,3.45
2022-08-29T17:01:34.457Z,3.17
2022-08-29T17:04:03.194Z,1.98
2022-08-29T17:06:31.045Z,3.40
2022-08-29T17:08:58.369Z,1.73
2022-08-29T17:11:25.298Z,3.58
2022-08-29T17:13:51.963Z,5.15
2022-08-29T17:16:18.691Z,1.98
2022-08-29T17:18:45.183Z,2.42
2022-08-29T17:21:11.809Z,2.85
2022-08-29T17:23:39.176Z,4.65
2022-08-29T17:26:09.744Z,1.85
2022-08-29T17:28:37.591Z,1.75
2022-08-29T17:31:04.692Z,1.40
2022-08-29T17:33:31.229Z,1.77
2022-08-29T17:35:57.783Z,2.85
2022-08-29T17:38:24.915Z,2.42
2022-08-29T17:40:55.844Z,5.88
2022-08-29T17:43:22.406Z,3.92
2022-08-29T17:45:49.414Z,1.17
2022-08-29T17:48:16.142Z,2.20
2022-08-29T17:50:43.630Z,1.48
2022-08-29T17:53:10.077Z,1.77
2022-08-29T17:55:36.544Z,2.63
2022-08-29T17:58:03.267Z,3.70
2022-08-29T18:00:31.336Z,2.33
2022-08-29T18:02:58.288Z,1.85
2022-08-29T18:05:25.488Z,2.83
2022-08-29T18:07:52.092Z,1.58
2022-08-29T18:10:19.771Z,1.75
2022-08-29T18:12:46.802Z,2.67
2022-08-29T18:15:13.693Z,4.57
2022-08-29T18:17:41.187Z,2.28
2022-08-29T18:20:10.073Z,2.60
2022-08-29T18:22:37.205Z,3.60
2022-08-29T18:25:04.635Z,4.85
2022-08-29T18:27:31.074Z,3.53
2022-08-29T18:29:57.719Z,3.15
2022-08-29T18:32:25.504Z,2.65
2022-08-29T18:34:51.927Z,5.50
2022-08-29T18:37:18.351Z,11.98
2022-08-29T18:39:45.970Z,4.15
2022-08-29T18:42:30.476Z,3.72
2022-08-29T18:44:59.743Z,4.53
2022-08-29T18:47:26.189Z,4.40
2022-08-29T18:50:11.149Z,4.00
2022-08-29T18:52:38.405Z,2.83
2022-08-29T18:55:05.727Z,2.50
2022-08-29T18:57:32.218Z,5.93
2022-08-29T18:59:58.733Z,4.35
2022-08-29T19:02:25.569Z,5.05
2022-08-29T19:04:52.175Z,3.13
2022-08-29T19:07:20.249Z,8.52
2022-08-29T19:09:52.969Z,2.63
2022-08-29T19:12:19.659Z,4.13
2022-08-29T19:14:46.351Z,4.40
2022-08-29T19:17:13.045Z,7.03
2022-08-29T19:19:58.230Z,3.03
2022-08-29T19:22:24.684Z,3.10
2022-08-29T19:24:51.115Z,3.45
2022-08-29T19:27:41.665Z,2.55
2022-08-29T19:30:06.830Z,4.72
2022-08-29T19:32:33.566Z,5.22
2022-08-29T19:35:00.233Z,17.73
2022-08-29T19:37:26.906Z,2.05
2022-08-29T19:39:53.365Z,6.22
2022-08-29T19:42:19.844Z,2.72
2022-08-29T19:44:46.289Z,7.25
2022-08-29T19:47:14.516Z,3.13
2022-08-29T19:49:45.458Z,2.53
2022-08-29T19:52:12.078Z,5.03
2022-08-29T19:54:38.510Z,7.63
2022-08-29T19:57:05.124Z,3.30
2022-08-29T19:59:31.965Z,5.32
2022-08-29T20:01:58.968Z,6.22
2022-08-29T20:04:27.123Z,3.00
2022-08-29T20:06:57.278Z,3.58
2022-08-29T20:09:27.067Z,9.65
2022-08-29T20:11:53.915Z,3.53
2022-08-29T20:14:20.393Z,3.50
2022-08-29T20:16:46.879Z,5.80
2022-08-29T20:19:13.385Z,4.57
2022-08-29T20:21:41.790Z,2.85
2022-08-29T20:24:10.303Z,6.57
2022-08-29T20:26:42.416Z,3.78
2022-08-29T20:29:11.030Z,5.15
2022-08-29T20:31:38.589Z,5.15
2022-08-29T20:34:05.046Z,2.33
2022-08-29T20:36:50.186Z,4.35
2022-08-29T20:39:19.545Z,2.65
2022-08-29T20:41:57.495Z,4.35
2022-08-29T20:44:29.119Z,8.73
2022-08-29T20:46:58.097Z,5.20
2022-08-29T20:49:26.566Z,2.33
2022-08-29T20:51:53.224Z,3.50
2022-08-29T20:54:23.703Z,4.97
2022-08-29T20:56:51.262Z,3.40
2022-08-29T20:59:18.278Z,5.75
2022-08-29T21:01:45.126Z,6.50
2022-08-29T21:04:31.076Z,3.72
2022-08-29T21:07:04.214Z,4.70
2022-08-29T21:09:31.452Z,5.43
2022-08-29T21:11:58.027Z,3.65
2022-08-29T21:14:24.569Z,2.40
2022-08-29T21:16:52.304Z,2.58
2022-08-29T21:19:19.063Z,2.35
2022-08-29T21:21:46.185Z,3.85
2022-08-29T21:24:12.733Z,4.22
2022-08-29T21:26:39.833Z,6.57
2022-08-29T21:29:07.465Z,12.63
2022-08-29T21:31:35.101Z,4.00
2022-08-29T21:34:06.394Z,3.20
2022-08-29T21:36:34.647Z,2.92
2022-08-29T21:39:01.095Z,3.50
2022-08-29T21:41:30.848Z,6.55
2022-08-29T21:43:57.688Z,2.35
2022-08-29T21:46:27.104Z,2.95
2022-08-29T21:48:56.677Z,8.63
2022-08-29T21:51:24.743Z,3.30
2022-08-29T21:53:53.518Z,2.65
2022-08-29T21:56:20.198Z,4.82
2022-08-29T21:58:54.106Z,3.22
2022-08-29T22:01:23.601Z,5.20
2022-08-29T22:03:50.787Z,5.00
2022-08-29T22:06:18.133Z,5.65
2022-08-29T22:08:46.179Z,2.70
2022-08-29T22:11:25.188Z,2.63
2022-08-29T22:16:31.169Z,5.93
2022-08-29T22:19:16.348Z,4.25
2022-08-29T22:21:45.419Z,2.92
2022-08-29T22:24:13.457Z,8.20
2022-08-29T22:26:40.977Z,5.00
2022-08-29T22:29:11.656Z,3.63
2022-08-29T22:31:38.611Z,4.90
2022-08-29T22:34:05.746Z,3.97
2022-08-29T22:36:33.006Z,4.32
2022-08-29T22:38:59.971Z,2.05
2022-08-29T22:41:26.860Z,2.33
2022-08-29T22:44:16.614Z,3.00
2022-08-29T22:46:44.933Z,3.63
2022-08-29T22:49:11.485Z,6.25
2022-08-29T22:51:38.134Z,3.20
2022-08-29T22:54:23.272Z,4.70
2022-08-29T22:56:49.693Z,5.20
2022-08-29T22:59:18.994Z,5.28
2022-08-29T23:01:45.506Z,4.55
2022-08-29T23:04:12.897Z,6.15
2022-08-29T23:06:39.324Z,2.40
2022-08-29T23:09:06.340Z,4.97
2022-08-29T23:11:33.726Z,3.00
2022-08-29T23:14:00.553Z,3.22
2022-08-29T23:16:28.967Z,4.22
2022-08-29T23:18:55.468Z,3.25
2022-08-29T23:21:22.894Z,4.47
2022-08-29T23:23:50.668Z,2.33
2022-08-29T23:26:18.017Z,4.50
2022-08-29T23:28:44.484Z,3.65
2022-08-29T23:31:10.966Z,5.45
2022-08-29T23:33:37.558Z,3.10
2022-08-29T23:36:05.504Z,6.18
2022-08-29T23:38:32.087Z,1.98
2022-08-29T23:40:58.869Z,2.60
2022-08-29T23:43:27.777Z,5.28
2022-08-29T23:45:55.324Z,6.05
2022-08-29T23:48:26.052Z,4.68
2022-08-29T23:50:53.718Z,2.58
2022-08-29T23:53:22.157Z,7.63
2022-08-29T23:55:49.203Z,5.45
2022-08-29T23:58:16.681Z,5.32
